createdAt,value
2022-09-21T00:02:08.590Z,101647.09
2022-09-21T00:06:14.661Z,101652.34
2022-09-21T00:10:20.114Z,101642.69
2022-09-21T00:14:22.934Z,101647.69
2022-09-21T00:18:26.181Z,101638.16
2022-09-21T00:22:30.409Z,101642.53
2022-09-21T00:26:33.376Z,101636.38
2022-09-21T00:30:36.185Z,101638.78
2022-09-21T00:34:39.034Z,101634.28
2022-09-21T00:38:43.829Z,101648.22
2022-09-21T00:42:46.634Z,101650.13
2022-09-21T00:46:51.796Z,101649.75
2022-09-21T00:50:58.877Z,101646.16
2022-09-21T00:55:07.161Z,101649.94
2022-09-21T00:59:10.946Z,101647.31
2022-09-21T01:03:14.542Z,101647.50
2022-09-21T01:07:21.030Z,101645.63
2022-09-21T01:11:35.265Z,101642.63
2022-09-21T01:15:46.727Z,101651.78
2022-09-21T01:20:32.463Z,101640.50
2022-09-21T01:24:49.812Z,101645.66
2022-09-21T01:29:13.603Z,101647.75
2022-09-21T01:33:22.820Z,101642.34
2022-09-21T01:37:30.424Z,101643.59
2022-09-21T01:41:36.068Z,101646.69
2022-09-21T01:45:44.598Z,101636.81
2022-09-21T01:49:50.864Z,101629.50
2022-09-21T01:53:57.528Z,101629.00
2022-09-21T01:58:06.406Z,101626.91
2022-09-21T02:02:16.623Z,101629.09
2022-09-21T02:06:20.251Z,101632.34
2022-09-21T02:10:28.652Z,101627.38
2022-09-21T02:14:33.552Z,101627.38
2022-09-21T02:18:46.829Z,101634.78
2022-09-21T02:23:00.933Z,101633.38
2022-09-21T02:27:06.916Z,101627.75
2022-09-21T02:31:17.859Z,101628.47
2022-09-21T02:35:32.252Z,101629.53
2022-09-21T02:39:39.091Z,101628.81
2022-09-21T02:43:45.794Z,101629.91
2022-09-21T02:47:53.239Z,101633.06
2022-09-21T02:52:01.437Z,101624.72
2022-09-21T02:56:07.532Z,101626.38
2022-09-21T03:00:12.154Z,101628.25
2022-09-21T03:04:14.889Z,101615.56
2022-09-21T03:08:19.826Z,101616.44
2022-09-21T03:12:22.628Z,101618.34
2022-09-21T03:16:25.533Z,101621.97
2022-09-21T03:20:28.368Z,101617.06
2022-09-21T03:24:47.785Z,101630.31
2022-09-21T03:28:51.076Z,101629.84
2022-09-21T03:32:54.818Z,101634.28
2022-09-21T03:36:57.501Z,101626.44
2022-09-21T03:41:01.640Z,101637.59
2022-09-21T03:45:04.771Z,101629.63
2022-09-21T03:49:07.593Z,101631.69
2022-09-21T03:53:11.246Z,101629.69
2022-09-21T03:57:15.470Z,101626.97
2022-09-21T04:01:18.206Z,101628.91
2022-09-21T04:05:21.308Z,101639.16
2022-09-21T04:09:24.136Z,101639.06
2022-09-21T04:13:28.300Z,101632.72
2022-09-21T04:17:31.685Z,101648.59
2022-09-21T04:21:34.520Z,101646.28
2022-09-21T04:25:37.269Z,101642.41
2022-09-21T04:29:41.941Z,101646.53
2022-09-21T04:33:44.848Z,101650.47
2022-09-21T04:37:47.677Z,101654.03
2022-09-21T04:41:50.356Z,101649.63
2022-09-21T04:45:54.530Z,101656.44
2022-09-21T04:49:57.485Z,101658.41
2022-09-21T04:54:00.234Z,101654.88
2022-09-21T04:58:03.067Z,101657.34
2022-09-21T05:02:07.120Z,101658.22
2022-09-21T05:06:13.543Z,101660.00
2022-09-21T05:10:16.642Z,101663.41
2022-09-21T05:14:19.506Z,101660.00
2022-09-21T05:18:23.680Z,101669.16
2022-09-21T05:22:26.557Z,101672.63
2022-09-21T05:26:29.262Z,101668.13
2022-09-21T05:30:32.767Z,101672.38
2022-09-21T05:34:47.107Z,101668.25
2022-09-21T05:38:50.420Z,101689.47
2022-09-21T05:42:53.761Z,101687.28
2022-09-21T05:47:02.761Z,101692.31
2022-09-21T05:51:13.798Z,101689.78
2022-09-21T05:55:28.450Z,101693.13
2022-09-21T05:59:42.901Z,101702.78
2022-09-21T06:03:48.663Z,101702.16
2022-09-21T06:07:52.662Z,101706.66
2022-09-21T06:11:55.377Z,101708.81
2022-09-21T06:15:58.583Z,101710.22
2022-09-21T06:20:01.287Z,101717.47
2022-09-21T06:24:06.053Z,101720.59
2022-09-21T06:28:12.054Z,101724.22
2022-09-21T06:32:14.747Z,101731.22
2022-09-21T06:36:18.004Z,101723.59
2022-09-21T06:40:22.575Z,101727.19
2022-09-21T06:44:25.751Z,101730.94
2022-09-21T06:48:29.457Z,101732.63
2022-09-21T06:52:33.251Z,101725.06
2022-09-21T06:56:37.523Z,101741.06
2022-09-21T07:00:40.353Z,101735.84
2022-09-21T07:04:43.242Z,101738.44
2022-09-21T07:13:10.480Z,101740.84
2022-09-21T07:17:16.010Z,101742.81
2022-09-21T07:21:18.923Z,101742.78
2022-09-21T07:25:21.609Z,101746.84
2022-09-21T07:29:26.062Z,101744.38
2022-09-21T07:33:32.689Z,101748.06
2022-09-21T07:37:38.070Z,101745.75
2022-09-21T07:41:40.787Z,101738.69
2022-09-21T07:45:44.865Z,101718.03
2022-09-21T07:49:48.105Z,101696.44
2022-09-21T07:53:56.867Z,101677.53
2022-09-21T07:58:17.304Z,101678.47
2022-09-21T08:02:21.602Z,101650.16
2022-09-21T08:06:25.545Z,101643.56
2022-09-21T08:10:28.917Z,101644.94
2022-09-21T08:14:32.024Z,101641.53
2022-09-21T08:18:40.098Z,101632.03
2022-09-21T08:22:42.961Z,101640.56
2022-09-21T08:26:46.306Z,101639.81
2022-09-21T08:30:49.106Z,101651.41
2022-09-21T08:34:53.160Z,101649.59
2022-09-21T08:38:57.068Z,101646.34
2022-09-21T08:43:04.882Z,101643.97
2022-09-21T08:47:13.373Z,101642.38
2022-09-21T08:51:23.999Z,101649.34
2022-09-21T08:55:26.898Z,101651.72
2022-09-21T08:59:29.833Z,101651.56
2022-09-21T09:04:00.562Z,101637.13
2022-09-21T09:08:33.136Z,101648.34
2022-09-21T09:12:49.740Z,101651.50
2022-09-21T09:17:11.051Z,101649.47
2022-09-21T09:21:29.383Z,101656.22
2022-09-21T09:25:38.881Z,101652.94
2022-09-21T09:29:46.998Z,101647.03
2022-09-21T09:33:56.485Z,101647.50
2022-09-21T09:38:06.165Z,101656.25
2022-09-21T09:42:25.617Z,101650.41
2022-09-21T09:46:34.885Z,101654.06
2022-09-21T09:50:40.974Z,101660.13
2022-09-21T09:54:44.637Z,101659.63
2022-09-21T09:58:51.556Z,101655.22
2022-09-21T10:02:55.994Z,101659.19
2022-09-21T10:06:58.746Z,101651.81
2022-09-21T10:11:01.702Z,101659.88
2022-09-21T10:15:12.851Z,101653.31
2022-09-21T10:19:18.705Z,101649.34
2022-09-21T10:23:21.572Z,101647.72
2022-09-21T10:27:28.579Z,101648.50
2022-09-21T10:31:33.158Z,101652.47
2022-09-21T10:35:50.756Z,101648.50
2022-09-21T10:39:53.641Z,101643.97
2022-09-21T10:43:56.397Z,101629.53
2022-09-21T10:48:09.757Z,101633.63
2022-09-21T10:52:12.659Z,101635.63
2022-09-21T10:56:19.136Z,101641.94
2022-09-21T11:00:35.680Z,101640.00
2022-09-21T11:04:47.160Z,101643.34
2022-09-21T11:08:56.514Z,101642.59
2022-09-21T11:13:19.022Z,101639.50
2022-09-21T11:17:34.285Z,101638.81
2022-09-21T11:21:45.171Z,101640.66
2022-09-21T11:25:54.913Z,101631.66
2022-09-21T11:30:03.161Z,101631.56
2022-09-21T11:34:26.155Z,101629.91
2022-09-21T11:45:01.823Z,101625.94
2022-09-21T11:49:27.808Z,101611.22
2022-09-21T11:53:46.855Z,101613.06
2022-09-21T11:57:55.361Z,101604.63
2022-09-21T12:02:21.490Z,101602.63
2022-09-21T12:06:42.081Z,101604.44
2022-09-21T12:10:56.182Z,101593.06
2022-09-21T12:15:08.230Z,101592.50
2022-09-21T16:51:24.857Z,101428.63
2022-09-21T16:55:29.336Z,101438.34
2022-09-21T17:06:02.654Z,101422.81
2022-09-21T17:10:13.988Z,101425.31
2022-09-21T17:14:17.009Z,101429.66
2022-09-21T17:18:19.691Z,101412.53
2022-09-21T17:22:23.364Z,101425.47
2022-09-21T17:26:28.273Z,101431.16
2022-09-21T17:30:32.131Z,101421.06
2022-09-21T17:34:35.291Z,101421.97
2022-09-21T17:38:38.211Z,101433.41
2022-09-21T17:42:46.607Z,101428.56
2022-09-21T17:46:59.079Z,101429.59
2022-09-21T17:51:02.450Z,101427.47
2022-09-21T17:55:08.642Z,101429.41
2022-09-21T17:59:26.383Z,101431.25
2022-09-21T18:03:31.051Z,101440.84
2022-09-21T18:07:34.872Z,101442.84
2022-09-21T18:12:02.698Z,101438.94
2022-09-21T18:16:19.974Z,101443.09
2022-09-21T18:20:32.420Z,101459.41
2022-09-21T18:24:35.766Z,101452.38
2022-09-21T18:28:42.341Z,101461.75
2022-09-21T18:33:52.916Z,101462.75
2022-09-21T18:38:13.110Z,101467.56
2022-09-21T18:42:40.401Z,101464.69
2022-09-21T18:46:56.996Z,101471.94
2022-09-21T18:51:09.782Z,101474.22
2022-09-21T18:55:26.718Z,101481.13
2022-09-21T18:59:32.001Z,101486.81
2022-09-21T19:03:38.026Z,101490.47
2022-09-21T19:07:48.678Z,101490.63
2022-09-21T19:12:00.526Z,101496.94
2022-09-21T19:16:12.631Z,101493.44
2022-09-21T19:20:32.372Z,101499.66
2022-09-21T19:24:42.771Z,101503.16
2022-09-21T19:29:04.522Z,101514.22
2022-09-21T19:33:45.886Z,101517.16
2022-09-21T19:37:49.658Z,101508.66
2022-09-21T19:42:04.520Z,101518.25
2022-09-21T19:46:20.149Z,101518.91
2022-09-21T19:50:27.652Z,101524.72
2022-09-21T19:54:48.628Z,101525.94
2022-09-21T19:59:09.723Z,101518.84
2022-09-21T20:03:19.528Z,101520.66
2022-09-21T20:07:31.400Z,101517.63
2022-09-21T20:11:45.903Z,101516.84
2022-09-21T20:15:52.820Z,101521.81
2022-09-21T20:20:08.669Z,101526.31
2022-09-21T20:24:21.230Z,101522.97
2022-09-21T20:28:25.124Z,101526.44
2022-09-21T20:32:27.981Z,101527.00
2022-09-21T20:36:32.865Z,101524.31
2022-09-21T20:40:36.198Z,101516.63
2022-09-21T20:44:39.049Z,101519.41
2022-09-21T20:48:42.090Z,101522.00
2022-09-21T20:52:46.654Z,101521.81
2022-09-21T20:56:50.175Z,101524.56
2022-09-21T21:00:58.561Z,101521.16
2022-09-21T21:05:01.742Z,101527.31
2022-09-21T21:09:05.997Z,101534.22
2022-09-21T21:13:08.833Z,101530.81
2022-09-21T21:17:12.022Z,101530.13
2022-09-21T21:21:15.081Z,101536.97
2022-09-21T21:25:19.547Z,101523.16
2022-09-21T21:29:22.768Z,101534.38
2022-09-21T21:33:25.570Z,101534.94
2022-09-21T21:37:30.990Z,101534.22
2022-09-21T21:41:35.188Z,101535.28
2022-09-21T21:45:38.372Z,101536.97
2022-09-21T21:49:41.346Z,101531.53
2022-09-21T21:53:44.697Z,101535.63
2022-09-21T21:57:48.878Z,101535.63
2022-09-21T22:01:53.233Z,101524.38
2022-09-21T22:05:56.948Z,101530.72
2022-09-21T22:09:59.697Z,101521.50
2022-09-21T22:14:05.357Z,101524.09
2022-09-21T22:18:08.151Z,101517.94
2022-09-21T22:22:10.933Z,101521.16
2022-09-21T22:26:16.135Z,101522.38
2022-09-21T22:30:20.287Z,101519.31
2022-09-21T22:34:23.098Z,101520.16
2022-09-21T22:38:29.798Z,101524.06
2022-09-21T22:42:33.212Z,101526.78
2022-09-21T22:46:38.182Z,101518.78
2022-09-21T22:50:41.128Z,101520.66
2022-09-21T22:54:44.051Z,101524.41
2022-09-21T22:58:48.791Z,101522.84
2022-09-21T23:02:56.043Z,101525.75
2022-09-21T23:06:58.800Z,101519.59
2022-09-21T23:11:10.768Z,101519.56
2022-09-21T23:15:14.645Z,101512.09
2022-09-21T23:19:18.832Z,101517.19
2022-09-21T23:23:22.059Z,101513.97
2022-09-21T23:27:25.124Z,101512.06
2022-09-21T23:31:28.840Z,101510.88
2022-09-21T23:35:33.074Z,101510.34
2022-09-21T23:39:35.874Z,101497.94
2022-09-21T23:43:39.866Z,101503.09
2022-09-21T23:47:42.776Z,101496.25
2022-09-21T23:51:47.413Z,101499.78
2022-09-21T23:55:50.235Z,101500.47
2022-09-21T23:59:53.079Z,101500.97
